Garden Valley, ID (83622)

3:20 PM MDT on June 22, 2017 (GMT -0600)
Crouch Idaho | | Change Station
Active Advisory: Fire Weather Warning

Elev 3129 ft 44.12 °N, 115.97 °W | Updated 14 seconds ago

Clear
Clear
85.3 °F
Feels Like 82 °F
N
3.0
Wind Variable Wind from ENE

Today
High -- | Low -- °F
--% Chance of Precip.
Yesterday
High -- | Low -- °F
Precip. -- in
Pressure 30.03 in
Visibility 10.0 miles
Clouds Clear
Heat Index 82 °F
Dew Point 38 °F
Humidity 19%
Rainfall 0.00 in
Snow Depth Not available.
6:00 AM 9:30 PM
Waning Crescent, 2% visible
METAR KBOI 222053Z 31018G26KT 10SM CLR 26/M02 A3010 RMK AO2 PK WND 32027/2038 SLP168 T02611017 55007
Pressure 30.03 in
Visibility 10.0 miles
Clouds Clear
Heat Index 82 °F
Dew Point 38 °F
Humidity 19%
Rainfall 0.00 in
Snow Depth Not available.
6:00 AM 9:30 PM
Waning Crescent, 2% visible
METAR KBOI 222053Z 31018G26KT 10SM CLR 26/M02 A3010 RMK AO2 PK WND 32027/2038 SLP168 T02611017 55007

Get Your Daily Forecast Email!

Thanks for signing up!

Be on the lookout for a verification email in your inbox.

You'll start receiving severe weather alerts in your inbox..

×

10-Day Weather Forecast

Almanac

Astronomy

Jun. 22, 2017 Rise Set
Actual Time
Civil Twilight
Nautical Twilight
Astronomical Twilight
Moon
Length of Visible Light
Length of Day
Tomorrow will be .
, % of the Moon is Illuminated

Today's Extremes

State Highs State Lows

Community

WunderPhotos

Category 6

Welcome to Category 6. This is the collective home for Weather Underground's featured writeups by Dr. Jeff Masters (right), Bob Henson (left), Chris Burt, and other regular contributors.

Nearby

Air Quality

  Air Quality AQ Index Pollutant
Not available.

Snow Depth

Station Depth Elevation

Earthquake Activity

City Distance Mag. Time & Date
Minimum magnitude displayed is 2.5.

Coastal Water Temperatures

Place Temperature

Stations

Nearby Weather Stations

Station Location Temp. Windchill Dew Point Humidity Wind Precip. Elev Updated Type
                   

Watches & Warnings

Fire Weather Warning
Issued: 12:44 PM MDT Jun. 22, 2017 – National Weather Service

The National Weather Service in Boise has issued a red flag
warning, which is in effect until 9 PM MDT this evening.

* Winds... 20 to 25 mph with gusts 30 to 35 mph.

* Relative humidity... lowering to 10 to 15 percent.

Precautionary/preparedness actions...

A red flag warning means that critical fire weather conditions
are either occurring now... or will shortly.




W